Time;durP1;ratioP1;P1;durP2;ratioP2;P2;SDS_P1;SDS_P2;PMS_P1;PMS_P2;Temp;Humidity;BMP_temperature;BMP_pressure;BME280_temperature;BME280_humidity;BME280_pressure;Samples;Min_cycle;Max_cycle;Signal;HPM_P1;HPM_P2
2022/01/05 00:01:46;;;;;;;3.77;0.97;;;5.40;99.90;;;;;;5055851;28;20569;-53
2022/01/05 00:04:13;;;;;;;5.57;0.80;;;5.30;99.90;;;;;;5051407;28;20214;-53
2022/01/05 00:06:40;;;;;;;11.43;2.07;;;5.10;99.90;;;;;;5074778;28;20581;-52
2022/01/05 00:09:07;;;;;;;8.20;1.00;;;4.80;99.90;;;;;;5059050;28;20235;-55
2022/01/05 00:11:38;;;;;;;8.90;1.30;;;4.90;99.90;;;;;;5059311;28;20257;-53
2022/01/05 00:14:04;;;;;;;6.40;1.93;;;5.10;99.90;;;;;;5059244;28;20220;-53
2022/01/05 00:16:31;;;;;;;4.67;1.27;;;5.00;99.90;;;;;;5058617;28;20732;-55
2022/01/05 00:18:58;;;;;;;6.40;1.37;;;5.00;99.90;;;;;;5061073;28;20203;-54
2022/01/05 00:21:25;;;;;;;6.47;1.27;;;4.90;99.90;;;;;;5062659;28;20203;-53
2022/01/05 00:23:52;;;;;;;9.03;1.57;;;5.00;99.90;;;;;;5061582;28;20211;-53
2022/01/05 00:26:19;;;;;;;7.43;1.30;;;4.90;99.90;;;;;;5061873;28;20242;-52
2022/01/05 00:28:46;;;;;;;4.60;1.10;;;4.90;99.90;;;;;;5071997;28;20224;-55
2022/01/05 00:31:13;;;;;;;7.33;1.70;;;4.90;99.90;;;;;;5060663;28;20393;-52
2022/01/05 00:33:39;;;;;;;4.43;1.43;;;4.80;99.90;;;;;;5056857;28;20203;-53
2022/01/05 00:36:06;;;;;;;8.57;1.77;;;4.80;99.90;;;;;;5058862;28;20203;-55
2022/01/05 00:38:34;;;;;;;8.37;1.40;;;4.70;99.90;;;;;;5061644;28;20674;-53
2022/01/05 00:41:02;;;;;;;5.83;1.80;;;4.60;99.90;;;;;;5061658;28;20233;-53
2022/01/05 00:43:30;;;;;;;8.37;1.17;;;4.40;99.90;;;;;;5061276;28;20207;-54
2022/01/05 00:45:57;;;;;;;5.97;1.20;;;4.20;99.90;;;;;;5062750;28;20200;-54
2022/01/05 00:48:24;;;;;;;7.67;1.70;;;4.20;99.90;;;;;;5062051;28;20671;-53
2022/01/05 00:50:51;;;;;;;7.00;1.40;;;4.20;99.90;;;;;;5061001;28;20203;-55
2022/01/05 00:53:18;;;;;;;4.40;1.70;;;4.20;99.90;;;;;;5062311;28;20294;-56
2022/01/05 00:55:45;;;;;;;4.50;1.30;;;4.20;99.90;;;;;;5063025;28;20211;-53
2022/01/05 00:58:11;;;;;;;8.07;1.30;;;4.20;99.90;;;;;;5062096;28;20623;-53
2022/01/05 01:00:38;;;;;;;2.17;1.10;;;4.50;99.90;;;;;;5077867;28;20291;-54
2022/01/05 01:03:05;;;;;;;5.97;1.70;;;4.20;99.90;;;;;;5057340;28;20214;-54
2022/01/05 01:05:32;;;;;;;8.00;1.37;;;4.20;99.90;;;;;;5059920;28;20762;-54
2022/01/05 01:07:59;;;;;;;6.83;1.47;;;4.20;99.90;;;;;;5057828;28;20250;-54
2022/01/05 01:10:26;;;;;;;3.97;1.23;;;4.20;99.90;;;;;;5061479;28;20216;-53
2022/01/05 01:12:53;;;;;;;5.50;1.60;;;4.10;99.90;;;;;;5057611;28;20290;-52
2022/01/05 01:15:20;;;;;;;4.07;1.13;;;4.10;99.90;;;;;;5060863;28;20203;-54
2022/01/05 01:17:47;;;;;;;5.03;1.70;;;4.10;99.90;;;;;;5061650;28;20253;-52
2022/01/05 01:20:13;;;;;;;6.07;1.20;;;4.10;99.90;;;;;;5060243;28;20288;-53
2022/01/05 01:22:40;;;;;;;8.33;1.40;;;4.20;99.90;;;;;;5059356;28;20289;-54
2022/01/05 01:25:08;;;;;;;5.40;1.53;;;4.10;99.90;;;;;;5076796;28;20215;-56
2022/01/05 01:27:35;;;;;;;7.50;1.57;;;3.90;99.90;;;;;;5061289;28;20208;-55
2022/01/05 01:30:03;;;;;;;7.90;1.23;;;4.00;99.90;;;;;;5058961;28;20266;-53
2022/01/05 01:32:30;;;;;;;4.50;1.53;;;3.80;99.90;;;;;;5058159;28;20238;-52
2022/01/05 01:34:57;;;;;;;3.80;1.20;;;3.70;99.90;;;;;;5053956;28;20205;-51
2022/01/05 01:37:23;;;;;;;4.37;1.60;;;3.70;99.90;;;;;;5061516;28;20199;-53
2022/01/05 01:39:50;;;;;;;4.57;1.07;;;3.70;99.90;;;;;;5060265;28;20204;-53
2022/01/05 01:42:17;;;;;;;5.23;1.20;;;3.70;99.90;;;;;;5061752;28;20210;-53
2022/01/05 01:44:44;;;;;;;4.33;1.33;;;3.60;99.90;;;;;;5061402;28;20203;-54
2022/01/05 01:47:11;;;;;;;5.77;1.57;;;3.50;99.90;;;;;;5061837;28;20285;-52
2022/01/05 01:49:38;;;;;;;5.53;1.30;;;3.50;99.90;;;;;;5058979;28;20254;-53
2022/01/05 01:52:05;;;;;;;2.57;1.07;;;3.60;99.90;;;;;;5058647;28;20289;-52
2022/01/05 01:54:35;;;;;;;3.57;1.40;;;3.60;99.90;;;;;;5061297;28;20238;-53
2022/01/05 01:57:02;;;;;;;6.63;1.50;;;3.60;99.90;;;;;;5061355;28;20206;-53
2022/01/05 01:59:29;;;;;;;7.10;1.60;;;3.40;99.90;;;;;;5061446;28;20246;-53
2022/01/05 02:01:56;;;;;;;5.40;1.43;;;3.40;99.90;;;;;;5059180;28;20215;-52
2022/01/05 02:04:23;;;;;;;4.33;1.10;;;3.30;99.90;;;;;;5069209;28;20244;-53
2022/01/05 02:06:51;;;;;;;8.20;1.83;;;3.40;99.90;;;;;;5061965;28;20272;-52
2022/01/05 02:09:18;;;;;;;4.97;1.20;;;3.40;99.90;;;;;;5060087;28;20238;-51
2022/01/05 02:11:45;;;;;;;6.10;1.27;;;3.30;99.90;;;;;;5061272;28;20249;-51
2022/01/05 02:14:12;;;;;;;5.47;1.33;;;3.40;99.90;;;;;;5060716;28;20238;-52
2022/01/05 02:16:43;;;;;;;2.70;1.43;;;3.50;99.90;;;;;;5061378;28;20242;-52
2022/01/05 02:19:11;;;;;;;4.17;1.13;;;3.40;99.90;;;;;;5060010;28;20300;-54
2022/01/05 02:21:38;;;;;;;7.87;1.30;;;3.30;99.90;;;;;;5060990;28;20219;-50
2022/01/05 02:24:07;;;;;;;6.33;1.73;;;3.30;99.90;;;;;;5059415;28;20266;-51
2022/01/05 02:26:35;;;;;;;5.63;1.40;;;3.20;99.90;;;;;;5060326;28;20210;-51
2022/01/05 02:29:02;;;;;;;3.77;1.40;;;3.10;99.90;;;;;;5060105;28;20298;-52
2022/01/05 02:31:30;;;;;;;9.93;1.83;;;3.10;99.90;;;;;;5058955;28;20236;-53
2022/01/05 02:33:57;;;;;;;6.57;1.90;;;3.10;99.90;;;;;;5055645;28;20203;-52
2022/01/05 02:36:24;;;;;;;7.50;2.17;;;3.10;99.90;;;;;;5061624;28;20203;-53
2022/01/05 02:38:52;;;;;;;7.13;1.20;;;3.20;99.90;;;;;;5057101;28;20207;-54
2022/01/05 02:41:20;;;;;;;6.80;1.57;;;3.10;99.90;;;;;;5059984;28;20207;-52
2022/01/05 02:43:47;;;;;;;9.57;1.80;;;3.10;99.90;;;;;;5060363;28;20712;-53
2022/01/05 02:46:16;;;;;;;9.67;1.80;;;3.00;99.90;;;;;;5061343;28;20241;-53
2022/01/05 02:48:44;;;;;;;5.23;1.40;;;3.20;99.90;;;;;;5059762;28;20213;-52
2022/01/05 02:51:11;;;;;;;7.53;1.50;;;3.10;99.90;;;;;;5074394;28;20247;-55
2022/01/05 02:53:39;;;;;;;6.60;1.37;;;3.20;99.90;;;;;;5059214;28;20236;-54
2022/01/05 02:56:06;;;;;;;6.03;1.40;;;3.20;99.90;;;;;;5059666;28;20212;-53
2022/01/05 02:58:33;;;;;;;3.47;1.10;;;3.30;99.90;;;;;;5059526;28;20289;-55
2022/01/05 03:01:00;;;;;;;7.77;2.03;;;3.10;99.90;;;;;;5059976;28;20246;-54
2022/01/05 03:03:27;;;;;;;8.93;1.47;;;3.10;99.90;;;;;;5060665;28;20655;-53
2022/01/05 03:05:54;;;;;;;7.40;1.37;;;3.20;99.90;;;;;;5057203;28;20257;-54
2022/01/05 03:08:21;;;;;;;3.97;1.23;;;3.20;99.90;;;;;;5059719;28;20274;-53
2022/01/05 03:10:48;;;;;;;5.50;1.33;;;3.00;99.90;;;;;;5060163;28;20227;-53
2022/01/05 03:13:15;;;;;;;8.50;1.63;;;3.00;99.90;;;;;;5060443;28;20214;-53
2022/01/05 03:15:41;;;;;;;11.10;1.63;;;3.00;99.90;;;;;;5059437;28;20234;-52
2022/01/05 03:18:08;;;;;;;10.07;1.87;;;3.00;99.90;;;;;;5058732;28;20617;-52
2022/01/05 03:20:35;;;;;;;9.13;1.77;;;3.00;99.90;;;;;;5052501;28;20218;-51
2022/01/05 03:23:03;;;;;;;7.03;1.60;;;3.00;99.90;;;;;;5057777;28;20582;-52
2022/01/05 03:25:31;;;;;;;7.53;2.03;;;3.00;99.90;;;;;;5058920;28;20210;-50
2022/01/05 03:27:58;;;;;;;5.03;1.70;;;3.00;99.90;;;;;;5060740;28;20289;-54
2022/01/05 03:30:28;;;;;;;5.13;1.40;;;3.10;99.90;;;;;;5059744;28;20239;-54
2022/01/05 03:35:31;;;;;;;7.37;1.67;;;3.10;99.90;;;;;;5058785;28;20257;-53
2022/01/05 03:37:58;;;;;;;8.33;2.17;;;3.10;99.90;;;;;;5060088;28;20289;-51
2022/01/05 03:40:25;;;;;;;5.07;1.43;;;3.20;99.90;;;;;;5060013;28;20613;-53
2022/01/05 03:42:52;;;;;;;6.07;1.50;;;3.20;99.90;;;;;;5059439;28;20265;-53
2022/01/05 03:45:19;;;;;;;7.73;1.60;;;3.30;99.90;;;;;;5058532;28;20296;-53
2022/01/05 03:47:47;;;;;;;5.80;1.50;;;3.30;99.90;;;;;;5060572;28;20218;-54
2022/01/05 03:50:13;;;;;;;8.23;1.60;;;3.20;99.90;;;;;;5057094;28;20223;-54
2022/01/05 03:52:40;;;;;;;5.20;1.30;;;3.20;99.90;;;;;;5059591;28;20205;-54
2022/01/05 03:55:08;;;;;;;13.87;2.33;;;3.10;99.90;;;;;;5062897;28;20243;-54
2022/01/05 03:57:35;;;;;;;4.90;1.53;;;3.10;99.90;;;;;;5063062;28;20282;-51
2022/01/05 04:00:04;;;;;;;7.60;1.70;;;3.00;99.90;;;;;;5062260;28;20714;-52
2022/01/05 04:02:31;;;;;;;6.27;1.50;;;3.10;99.90;;;;;;5057771;28;20793;-53
2022/01/05 04:04:58;;;;;;;7.03;1.33;;;3.00;99.90;;;;;;5058561;28;20665;-54
2022/01/05 04:07:25;;;;;;;9.27;1.97;;;3.00;99.90;;;;;;5057207;28;20213;-53
2022/01/05 04:09:52;;;;;;;5.20;1.20;;;3.00;99.90;;;;;;5059711;28;20316;-53
2022/01/05 04:12:18;;;;;;;7.57;1.80;;;3.10;99.90;;;;;;5063955;28;20208;-54
2022/01/05 04:14:45;;;;;;;12.27;2.07;;;3.00;99.90;;;;;;5063605;28;20255;-53
2022/01/05 04:17:12;;;;;;;8.30;1.97;;;2.90;99.90;;;;;;5062791;28;20275;-52
2022/01/05 04:19:39;;;;;;;11.47;1.30;;;2.90;99.90;;;;;;5062444;28;20241;-53
2022/01/05 04:22:06;;;;;;;6.40;1.60;;;2.90;99.90;;;;;;5063037;28;20211;-52
2022/01/05 04:24:33;;;;;;;6.97;1.40;;;3.00;99.90;;;;;;5062601;28;20260;-51
2022/01/05 04:26:59;;;;;;;10.27;2.47;;;3.10;99.90;;;;;;5062872;28;20208;-52
2022/01/05 04:29:26;;;;;;;7.13;1.83;;;3.10;99.90;;;;;;5061367;28;20819;-53
2022/01/05 04:31:53;;;;;;;10.43;1.83;;;3.10;99.90;;;;;;5057743;28;20266;-51
2022/01/05 04:34:20;;;;;;;8.03;2.33;;;3.00;99.90;;;;;;5059622;28;20242;-54
2022/01/05 04:37:07;;;;;;;7.47;1.47;;;3.10;99.90;;;;;;5061474;28;20253;-53
2022/01/05 04:39:35;;;;;;;4.87;1.77;;;3.20;99.90;;;;;;5062688;28;20268;-53
2022/01/05 04:42:03;;;;;;;8.50;2.13;;;3.20;99.90;;;;;;5059523;28;20265;-51
2022/01/05 04:44:30;;;;;;;10.17;2.03;;;3.20;99.90;;;;;;5061513;28;20203;-51
2022/01/05 04:46:57;;;;;;;6.03;1.87;;;3.30;99.90;;;;;;5063405;28;20226;-50
2022/01/05 04:49:24;;;;;;;6.60;1.57;;;3.20;99.90;;;;;;5060389;28;20231;-51
2022/01/05 04:51:51;;;;;;;6.30;1.60;;;3.20;99.90;;;;;;5072832;28;20288;-52
2022/01/05 04:54:18;;;;;;;9.47;1.83;;;3.20;99.90;;;;;;5061414;28;20239;-51
2022/01/05 04:56:46;;;;;;;9.70;1.97;;;3.30;99.90;;;;;;5058581;28;20219;-54
2022/01/05 04:59:13;;;;;;;10.90;2.23;;;3.30;99.90;;;;;;5061147;28;20216;-52
2022/01/05 05:01:40;;;;;;;9.03;2.03;;;3.30;99.90;;;;;;5062936;28;20211;-53
2022/01/05 05:04:07;;;;;;;6.90;2.00;;;3.30;99.90;;;;;;5061484;28;20215;-54
2022/01/05 05:06:34;;;;;;;5.33;1.90;;;3.40;99.90;;;;;;5058689;28;20204;-53
2022/01/05 05:09:01;;;;;;;15.17;2.00;;;3.40;99.90;;;;;;5061637;28;20716;-53
2022/01/05 05:11:27;;;;;;;7.73;2.00;;;3.40;99.90;;;;;;5058619;28;20224;-52
2022/01/05 05:13:54;;;;;;;9.23;2.20;;;3.40;99.90;;;;;;5062589;28;20214;-54
2022/01/05 05:16:21;;;;;;;6.50;1.60;;;3.40;99.90;;;;;;5062131;28;20208;-53
2022/01/05 05:18:48;;;;;;;7.93;1.93;;;3.50;99.90;;;;;;5061556;28;20609;-53
2022/01/05 05:21:15;;;;;;;14.87;2.60;;;3.40;99.90;;;;;;5061436;28;20252;-52
2022/01/05 05:23:42;;;;;;;4.27;1.60;;;3.40;99.90;;;;;;5061397;28;20294;-52
2022/01/05 05:26:09;;;;;;;7.67;1.80;;;3.50;99.90;;;;;;5062302;28;20783;-54
2022/01/05 05:28:36;;;;;;;5.43;1.70;;;3.60;99.90;;;;;;5061503;28;20682;-53
2022/01/05 05:31:03;;;;;;;10.93;2.63;;;3.60;99.90;;;;;;5061484;28;20243;-52
2022/01/05 05:33:32;;;;;;;5.33;1.60;;;3.60;99.90;;;;;;5061448;28;21096;-53
2022/01/05 05:35:59;;;;;;;7.27;1.73;;;3.60;99.90;;;;;;5060759;28;20199;-55
2022/01/05 05:38:26;;;;;;;6.83;1.57;;;3.60;99.90;;;;;;5060212;28;20228;-53
2022/01/05 05:40:52;;;;;;;8.37;2.20;;;3.70;99.90;;;;;;5059361;28;20215;-53
2022/01/05 05:43:19;;;;;;;11.73;2.43;;;3.60;99.90;;;;;;5060764;28;20718;-53
2022/01/05 05:45:46;;;;;;;8.87;2.40;;;3.70;99.90;;;;;;5060671;28;20241;-53
2022/01/05 05:48:13;;;;;;;6.03;1.60;;;3.70;99.90;;;;;;5061941;28;20278;-54
2022/01/05 05:50:40;;;;;;;8.63;1.97;;;3.80;99.90;;;;;;5059728;28;20700;-54
2022/01/05 05:53:07;;;;;;;10.37;2.00;;;3.80;99.90;;;;;;5061384;28;20665;-52
2022/01/05 05:55:38;;;;;;;6.83;2.20;;;3.80;99.90;;;;;;5060835;28;20202;-53
2022/01/05 05:58:05;;;;;;;7.53;1.70;;;3.80;99.90;;;;;;5061077;28;20225;-53
2022/01/05 06:00:31;;;;;;;12.07;2.07;;;3.80;99.90;;;;;;5076536;28;20212;-54
2022/01/05 06:02:59;;;;;;;13.13;1.77;;;3.80;99.90;;;;;;5060793;28;20743;-52
2022/01/05 06:05:27;;;;;;;16.47;2.87;;;3.90;99.90;;;;;;5060234;28;20222;-53
2022/01/05 06:07:53;;;;;;;7.90;2.40;;;3.90;99.90;;;;;;5060715;28;20216;-52
2022/01/05 06:10:20;;;;;;;8.10;1.60;;;3.90;99.90;;;;;;5061084;28;20243;-53
2022/01/05 06:12:47;;;;;;;8.30;1.83;;;4.00;99.90;;;;;;5059426;28;20233;-53
2022/01/05 06:15:14;;;;;;;7.37;2.10;;;4.10;99.90;;;;;;5060848;28;20208;-53
2022/01/05 06:17:41;;;;;;;13.37;2.03;;;4.20;99.90;;;;;;5061018;28;20291;-52
2022/01/05 06:20:10;;;;;;;13.27;1.97;;;4.20;99.90;;;;;;5059347;28;20199;-52
2022/01/05 06:22:41;;;;;;;10.13;2.00;;;4.30;99.90;;;;;;5061516;28;20550;-51
2022/01/05 06:25:10;;;;;;;12.57;2.17;;;4.30;99.90;;;;;;5059410;28;20204;-52
2022/01/05 06:27:37;;;;;;;9.93;1.80;;;4.30;99.90;;;;;;5058094;28;20250;-52
2022/01/05 06:30:06;;;;;;;9.43;2.23;;;4.40;99.90;;;;;;5060517;28;20770;-55
2022/01/05 06:32:34;;;;;;;6.30;1.27;;;4.30;99.90;;;;;;5061227;28;20205;-53
2022/01/05 06:35:03;;;;;;;9.23;2.20;;;4.30;99.90;;;;;;5052775;28;20204;-53
2022/01/05 06:37:29;;;;;;;9.10;1.50;;;4.30;99.90;;;;;;5061017;28;20228;-53
2022/01/05 06:39:56;;;;;;;14.33;1.90;;;4.30;99.90;;;;;;5060770;28;20310;-51
2022/01/05 06:42:23;;;;;;;4.03;1.70;;;4.30;99.90;;;;;;5059581;28;20208;-52
2022/01/05 06:44:50;;;;;;;4.47;1.77;;;4.40;99.90;;;;;;5054632;28;20269;-52
2022/01/05 06:47:17;;;;;;;11.67;2.43;;;4.40;99.90;;;;;;5061706;28;20207;-54
2022/01/05 06:49:44;;;;;;;12.63;3.00;;;4.50;99.90;;;;;;5057804;28;20195;-53
2022/01/05 06:52:12;;;;;;;10.37;2.10;;;4.50;99.90;;;;;;5056973;28;20679;-53
2022/01/05 06:54:42;;;;;;;7.73;2.17;;;4.50;99.90;;;;;;5053571;28;20204;-52
2022/01/05 06:57:09;;;;;;;8.97;1.93;;;4.60;99.90;;;;;;5060384;28;20191;-53
2022/01/05 06:59:37;;;;;;;7.37;1.67;;;4.60;99.90;;;;;;5053891;28;20776;-52
2022/01/05 07:02:04;;;;;;;9.77;2.17;;;4.60;99.90;;;;;;5055983;28;20683;-53
2022/01/05 07:04:32;;;;;;;12.33;1.97;;;4.70;99.90;;;;;;5058637;28;20643;-53
2022/01/05 07:07:00;;;;;;;8.77;1.87;;;4.70;99.90;;;;;;5060098;28;20223;-54
2022/01/05 07:09:26;;;;;;;6.57;1.90;;;4.60;99.90;;;;;;5058261;28;20260;-52
2022/01/05 07:11:53;;;;;;;10.00;1.80;;;4.70;99.90;;;;;;5060095;28;20267;-53
2022/01/05 07:14:26;;;;;;;9.00;2.07;;;4.70;99.90;;;;;;5058975;28;20260;-52
2022/01/05 07:16:52;;;;;;;8.27;2.37;;;4.80;99.90;;;;;;5059117;28;20216;-53
2022/01/05 07:19:22;;;;;;;11.97;1.63;;;4.80;99.90;;;;;;5057873;28;20298;-52
2022/01/05 07:21:49;;;;;;;6.50;1.77;;;4.80;99.90;;;;;;5059515;28;20209;-52
2022/01/05 07:24:19;;;;;;;4.73;1.90;;;4.90;99.90;;;;;;5071282;28;20273;-51
2022/01/05 07:26:47;;;;;;;5.60;1.70;;;5.00;99.90;;;;;;5059232;28;20620;-52
2022/01/05 07:29:15;;;;;;;8.37;1.37;;;5.00;99.90;;;;;;5062203;28;20315;-56
2022/01/05 07:31:42;;;;;;;6.37;1.83;;;5.00;99.90;;;;;;5062565;28;20357;-52
2022/01/05 07:34:09;;;;;;;6.80;2.00;;;5.00;99.90;;;;;;5061062;28;20241;-53
2022/01/05 07:36:37;;;;;;;6.27;1.73;;;5.00;99.90;;;;;;5062131;28;20340;-53
2022/01/05 07:39:05;;;;;;;8.90;2.17;;;5.00;99.90;;;;;;5063319;28;20624;-53
2022/01/05 07:41:36;;;;;;;7.23;2.03;;;5.00;99.90;;;;;;5057092;28;20298;-51
2022/01/05 07:44:05;;;;;;;4.93;1.53;;;5.00;99.90;;;;;;5062585;28;20212;-53
2022/01/05 07:46:32;;;;;;;12.27;2.07;;;5.10;99.90;;;;;;5063515;28;20231;-54
2022/01/05 07:49:01;;;;;;;16.93;2.03;;;5.10;99.90;;;;;;5060816;28;20315;-51
2022/01/05 07:51:29;;;;;;;5.33;1.70;;;5.10;99.90;;;;;;5062451;28;20295;-53
2022/01/05 07:53:56;;;;;;;8.70;1.73;;;5.10;99.90;;;;;;5061008;28;20586;-53
2022/01/05 07:56:23;;;;;;;7.23;2.43;;;5.10;99.90;;;;;;5058545;28;20294;-53
2022/01/05 07:58:50;;;;;;;8.20;2.13;;;5.10;99.90;;;;;;5060868;28;20244;-53
2022/01/05 08:01:18;;;;;;;7.87;2.03;;;5.00;99.90;;;;;;5063742;28;20253;-53
2022/01/05 08:03:49;;;;;;;3.20;1.73;;;5.10;99.90;;;;;;5060300;28;20210;-53
2022/01/05 08:06:20;;;;;;;11.83;2.20;;;5.00;99.90;;;;;;5062807;28;20214;-52
2022/01/05 08:08:48;;;;;;;8.40;2.10;;;5.00;99.90;;;;;;5062047;28;20243;-52
2022/01/05 08:11:16;;;;;;;6.07;1.93;;;5.00;99.90;;;;;;5059120;28;20276;-52
2022/01/05 08:13:43;;;;;;;11.27;1.73;;;5.00;99.90;;;;;;5062100;28;20335;-53
2022/01/05 08:16:10;;;;;;;8.83;2.07;;;5.00;99.90;;;;;;5062245;28;20630;-52
2022/01/05 08:18:37;;;;;;;9.00;1.90;;;5.10;99.90;;;;;;5062969;28;20651;-52
2022/01/05 08:21:04;;;;;;;6.53;1.33;;;5.00;99.90;;;;;;5061777;28;20624;-55
2022/01/05 08:23:31;;;;;;;7.83;1.87;;;5.00;99.90;;;;;;5062913;28;20287;-52
2022/01/05 08:25:58;;;;;;;6.57;1.90;;;5.00;99.90;;;;;;5063776;28;20248;-51
2022/01/05 08:28:25;;;;;;;6.33;1.90;;;5.10;99.90;;;;;;5062970;28;20213;-52
2022/01/05 08:30:52;;;;;;;7.23;1.90;;;5.10;99.90;;;;;;5059928;28;20684;-53
2022/01/05 08:33:19;;;;;;;11.30;1.60;;;5.00;99.90;;;;;;5062926;28;20292;-53
2022/01/05 08:35:46;;;;;;;7.93;1.67;;;5.00;99.90;;;;;;5061965;28;20257;-51
2022/01/05 08:38:15;;;;;;;5.03;1.63;;;5.00;99.90;;;;;;5060889;28;21249;-52
2022/01/05 08:40:42;;;;;;;5.70;1.70;;;5.10;99.90;;;;;;5062173;28;20734;-53
2022/01/05 08:43:11;;;;;;;3.93;1.60;;;5.00;99.90;;;;;;5062436;28;20273;-53
2022/01/05 08:45:38;;;;;;;5.13;1.77;;;5.10;99.90;;;;;;5061105;28;21114;-52
2022/01/05 08:48:10;;;;;;;7.97;1.93;;;5.30;99.90;;;;;;5062650;28;20291;-52
2022/01/05 08:50:38;;;;;;;4.20;1.43;;;5.40;99.90;;;;;;5060308;28;20544;-52
2022/01/05 08:53:06;;;;;;;7.27;1.67;;;5.50;99.90;;;;;;5061936;28;20705;-53
2022/01/05 08:55:36;;;;;;;11.93;1.90;;;5.50;99.90;;;;;;5062250;28;20655;-53
2022/01/05 08:58:04;;;;;;;11.53;2.10;;;5.60;99.90;;;;;;5062408;28;20203;-53
2022/01/05 09:00:32;;;;;;;7.80;1.70;;;5.50;99.90;;;;;;5063617;28;20238;-53
2022/01/05 09:03:00;;;;;;;9.50;1.77;;;5.50;99.90;;;;;;5057411;28;20571;-53
2022/01/05 09:05:27;;;;;;;4.70;1.67;;;5.50;99.90;;;;;;5060027;28;20247;-52
2022/01/05 09:07:54;;;;;;;6.93;1.77;;;5.50;99.90;;;;;;5057495;28;20244;-52
2022/01/05 09:10:21;;;;;;;15.83;2.00;;;5.50;99.90;;;;;;5062492;28;20588;-54
2022/01/05 09:12:48;;;;;;;11.93;2.53;;;5.40;99.90;;;;;;5057601;28;20777;-52
2022/01/05 09:15:15;;;;;;;10.27;1.77;;;5.40;99.90;;;;;;5061135;28;20656;-52
2022/01/05 09:17:42;;;;;;;13.20;2.17;;;5.40;99.90;;;;;;5057588;28;20622;-53
2022/01/05 09:20:09;;;;;;;9.37;2.20;;;5.50;99.90;;;;;;5060812;28;20533;-53
2022/01/05 09:22:38;;;;;;;10.57;2.33;;;5.50;99.90;;;;;;5061550;28;20726;-52
2022/01/05 09:25:10;;;;;;;10.67;2.47;;;5.50;99.90;;;;;;5077539;28;20206;-53
2022/01/05 09:27:38;;;;;;;12.10;1.83;;;5.50;99.90;;;;;;5061174;28;20726;-55
2022/01/05 09:30:08;;;;;;;6.33;1.73;;;5.50;99.90;;;;;;5060593;28;20281;-53
2022/01/05 09:32:36;;;;;;;11.83;2.43;;;5.50;99.90;;;;;;5077544;28;20746;-53
2022/01/05 09:35:04;;;;;;;8.00;2.17;;;5.50;99.90;;;;;;5060018;28;20201;-53
2022/01/05 09:37:35;;;;;;;13.77;1.97;;;5.50;99.90;;;;;;5061542;28;20210;-52
2022/01/05 09:42:49;;;;;;;8.40;1.93;;;5.50;99.90;;;;;;5060741;28;20208;-52
2022/01/05 09:45:16;;;;;;;10.77;1.97;;;5.60;99.90;;;;;;5057415;28;20205;-52
2022/01/05 09:48:27;;;;;;;11.40;2.87;;;5.50;99.90;;;;;;5061841;28;20236;-53
2022/01/05 09:50:58;;;;;;;7.23;1.57;;;5.60;99.90;;;;;;5058682;28;20884;-53
2022/01/05 09:53:25;;;;;;;9.73;1.43;;;5.60;99.90;;;;;;5060724;28;20287;-54
2022/01/05 09:56:10;;;;;;;12.73;2.27;;;5.60;99.90;;;;;;5060366;28;20671;-53
2022/01/05 09:58:42;;;;;;;7.30;1.83;;;5.70;99.90;;;;;;5058346;28;20237;-51
2022/01/05 10:01:09;;;;;;;10.77;2.10;;;5.70;99.90;;;;;;5061020;28;20287;-52
2022/01/05 10:03:36;;;;;;;10.83;2.00;;;5.70;99.90;;;;;;5061841;28;20210;-54
2022/01/05 10:06:03;;;;;;;11.47;2.57;;;5.70;99.90;;;;;;5060728;28;20705;-52
2022/01/05 10:08:31;;;;;;;13.63;1.93;;;5.70;99.90;;;;;;5059860;28;20290;-51
2022/01/05 10:10:59;;;;;;;6.67;1.70;;;5.80;99.90;;;;;;5060415;28;20365;-52
2022/01/05 10:13:25;;;;;;;13.53;2.63;;;6.00;99.90;;;;;;5061591;28;20256;-51
2022/01/05 10:15:53;;;;;;;8.93;2.60;;;6.00;99.90;;;;;;5058957;28;20244;-51
2022/01/05 10:18:22;;;;;;;9.90;2.23;;;6.10;99.90;;;;;;5060825;28;20234;-52
2022/01/05 10:21:05;;;;;;;10.20;2.43;;;6.00;99.90;;;;;;5059229;28;20202;-54
2022/01/05 10:23:41;;;;;;;11.20;2.17;;;6.10;99.90;;;;;;5059905;28;20652;-52
2022/01/05 10:26:28;;;;;;;12.87;1.97;;;6.00;99.90;;;;;;5060998;28;20213;-53
2022/01/05 10:29:01;;;;;;;5.33;1.60;;;6.10;99.90;;;;;;5060394;28;20204;-51
2022/01/05 10:31:36;;;;;;;9.27;1.80;;;6.00;99.90;;;;;;5060263;28;20336;-50
2022/01/05 10:34:27;;;;;;;3.97;1.97;;;6.10;99.90;;;;;;5058092;28;20201;-51
2022/01/05 10:36:57;;;;;;;8.00;2.47;;;6.20;99.90;;;;;;5060606;28;20279;-53
2022/01/05 10:39:38;;;;;;;10.37;1.97;;;6.20;99.90;;;;;;5059442;28;20574;-52
2022/01/05 10:42:08;;;;;;;9.27;2.07;;;6.30;99.90;;;;;;5060790;28;20210;-53
2022/01/05 10:44:35;;;;;;;10.07;1.77;;;6.20;99.90;;;;;;5060098;28;20310;-52
2022/01/05 10:47:03;;;;;;;10.40;2.13;;;6.20;99.90;;;;;;5060432;28;20729;-51
2022/01/05 10:49:36;;;;;;;8.90;1.53;;;6.20;99.90;;;;;;5058213;28;20207;-52
2022/01/05 10:52:24;;;;;;;6.07;2.10;;;6.20;99.90;;;;;;5059418;28;20213;-53
2022/01/05 10:54:52;;;;;;;11.20;2.00;;;6.20;99.90;;;;;;5058489;28;20204;-53
2022/01/05 10:57:19;;;;;;;12.00;2.07;;;6.20;99.90;;;;;;5058969;28;20707;-53
2022/01/05 10:59:49;;;;;;;8.87;2.23;;;6.40;99.90;;;;;;5054527;28;20706;-55
2022/01/05 11:02:21;;;;;;;7.67;1.97;;;6.40;99.90;;;;;;5058954;28;20202;-52
2022/01/05 11:04:49;;;;;;;8.10;1.50;;;6.50;99.90;;;;;;5058450;28;20229;-51
2022/01/05 11:07:24;;;;;;;6.87;2.00;;;6.60;99.90;;;;;;5059091;28;20261;-52
2022/01/05 11:09:53;;;;;;;10.87;2.23;;;6.50;99.90;;;;;;5059098;28;20702;-52
2022/01/05 11:12:29;;;;;;;10.87;1.80;;;6.50;99.90;;;;;;5059344;28;20255;-53
2022/01/05 11:15:16;;;;;;;9.43;1.90;;;6.50;99.90;;;;;;5059967;28;20242;-52
2022/01/05 11:18:09;;;;;;;11.67;1.97;;;6.50;99.90;;;;;;5057860;28;20256;-52
2022/01/05 11:20:51;;;;;;;8.73;2.10;;;6.50;99.90;;;;;;5058486;28;20242;-52
2022/01/05 11:23:20;;;;;;;8.80;1.93;;;6.50;99.90;;;;;;5059147;28;20208;-52
2022/01/05 11:25:48;;;;;;;10.87;1.87;;;6.50;99.90;;;;;;5059604;28;20269;-52
2022/01/05 11:28:16;;;;;;;13.00;2.20;;;6.60;99.90;;;;;;5058767;28;21111;-53
2022/01/05 11:30:45;;;;;;;20.13;2.63;;;6.60;99.90;;;;;;5059024;28;20271;-52
2022/01/05 11:33:13;;;;;;;7.57;1.60;;;6.60;99.90;;;;;;5058909;28;20253;-52
2022/01/05 11:35:40;;;;;;;12.20;2.23;;;6.60;99.90;;;;;;5058090;28;20268;-52
2022/01/05 11:38:08;;;;;;;7.37;1.90;;;6.60;99.90;;;;;;5059599;28;20313;-51
2022/01/05 11:40:38;;;;;;;12.17;2.00;;;6.60;99.90;;;;;;5059842;28;20582;-52
2022/01/05 11:43:13;;;;;;;7.27;1.70;;;6.50;99.90;;;;;;5059296;28;20244;-52
2022/01/05 11:45:47;;;;;;;7.80;2.13;;;6.60;99.90;;;;;;5059770;28;20291;-53
2022/01/05 11:48:22;;;;;;;10.13;2.63;;;6.50;99.90;;;;;;5059669;28;20209;-52
2022/01/05 11:50:52;;;;;;;9.80;2.27;;;6.50;99.90;;;;;;5058047;28;21015;-53
2022/01/05 11:53:45;;;;;;;16.40;2.67;;;6.60;99.90;;;;;;5058686;28;20310;-53
2022/01/05 11:56:22;;;;;;;12.00;2.33;;;6.50;99.90;;;;;;5059262;28;20287;-52
2022/01/05 11:58:52;;;;;;;9.20;1.80;;;6.60;99.90;;;;;;5059787;28;20213;-54
2022/01/05 12:01:20;;;;;;;7.07;1.57;;;6.80;99.90;;;;;;5055332;28;20199;-52
2022/01/05 12:04:11;;;;;;;6.57;2.27;;;7.10;99.90;;;;;;5056842;28;20214;-53
2022/01/05 12:06:44;;;;;;;11.70;2.83;;;7.00;99.90;;;;;;5059516;28;20209;-53
2022/01/05 12:09:22;;;;;;;4.90;1.90;;;6.90;99.90;;;;;;5058281;28;20292;-53
2022/01/05 12:11:50;;;;;;;10.63;2.13;;;6.90;99.90;;;;;;5058668;28;20305;-52
2022/01/05 12:14:20;;;;;;;10.23;2.60;;;7.00;99.90;;;;;;5058592;28;20254;-52
2022/01/05 12:16:58;;;;;;;9.00;1.77;;;7.10;99.90;;;;;;5062592;28;20209;-53
2022/01/05 12:19:26;;;;;;;7.67;1.80;;;7.10;99.90;;;;;;5057337;28;20268;-53
2022/01/05 12:21:55;;;;;;;11.83;2.00;;;7.00;99.90;;;;;;5062096;28;20296;-52
2022/01/05 12:24:58;;;;;;;18.10;3.00;;;7.00;99.90;;;;;;5062672;28;20612;-54
2022/01/05 12:27:32;;;;;;;14.87;2.60;;;7.00;99.90;;;;;;5062469;28;20210;-54
2022/01/05 12:30:03;;;;;;;8.70;2.10;;;6.90;99.90;;;;;;5062151;28;20215;-53
2022/01/05 12:32:34;;;;;;;11.13;2.57;;;6.70;99.90;;;;;;5062430;28;20220;-53
2022/01/05 12:35:06;;;;;;;7.13;2.10;;;6.80;99.90;;;;;;5059233;28;20200;-52
2022/01/05 12:37:50;;;;;;;13.27;2.80;;;6.60;99.90;;;;;;5062827;28;20295;-53
2022/01/05 12:40:27;;;;;;;10.17;2.50;;;6.70;99.90;;;;;;5074244;28;20253;-52
2022/01/05 12:43:06;;;;;;;8.40;2.67;;;6.60;99.90;;;;;;5061769;28;20243;-51
2022/01/05 12:45:49;;;;;;;8.73;1.83;;;6.60;99.90;;;;;;5059816;28;20213;-53
2022/01/05 12:48:31;;;;;;;14.40;2.57;;;6.60;99.90;;;;;;5061040;28;20245;-53
2022/01/05 12:51:23;;;;;;;9.40;2.23;;;6.80;99.90;;;;;;5061548;28;20256;-52
2022/01/05 12:53:54;;;;;;;11.73;2.23;;;6.80;99.90;;;;;;5061238;28;20307;-55
2022/01/05 12:56:46;;;;;;;12.00;2.10;;;6.80;99.90;;;;;;5061645;28;20612;-52
2022/01/05 12:59:15;;;;;;;11.63;1.97;;;6.80;99.90;;;;;;5061530;28;20238;-51
2022/01/05 13:01:44;;;;;;;10.77;2.17;;;6.80;99.90;;;;;;5062742;28;20257;-52
2022/01/05 13:04:13;;;;;;;13.63;2.40;;;6.80;99.90;;;;;;5060808;28;20196;-54
2022/01/05 13:07:00;;;;;;;10.03;1.93;;;6.80;99.90;;;;;;5062450;28;20273;-53
2022/01/05 13:09:36;;;;;;;14.53;1.67;;;6.70;99.90;;;;;;5077098;28;20271;-52
2022/01/05 13:12:08;;;;;;;9.30;2.40;;;6.60;99.90;;;;;;5061232;28;20219;-55